Time;durP1;ratioP1;P1;durP2;ratioP2;P2;SDS_P1;SDS_P2;PMS_P1;PMS_P2;Temp;Humidity;BMP_temperature;BMP_pressure;BME280_temperature;BME280_humidity;BME280_pressure;Samples;Min_cycle;Max_cycle;Signal;HPM_P1;HPM_P2
2023/08/22 00:01:06;;;;;;;;;;;;;;;22.03;27.81;98041.75;4960914;28;1043;-76
2023/08/22 00:03:32;;;;;;;;;;;;;;;21.85;28.10;98035.75;4960845;28;1906;-76
2023/08/22 00:05:57;;;;;;;;;;;;;;;22.00;27.78;98041.84;4960643;28;1206;-77
2023/08/22 00:08:23;;;;;;;;;;;;;;;21.98;27.98;98038.66;4977216;28;1666;-76
2023/08/22 00:10:49;;;;;;;;;;;;;;;22.02;27.96;98039.34;4954643;29;1774;-76
2023/08/22 00:13:15;;;;;;;;;;;;;;;22.30;27.61;98044.25;4939985;29;1041;-76
2023/08/22 00:15:40;;;;;;;;;;;;;;;21.90;28.06;98035.22;4955969;29;983;-76
2023/08/22 00:18:06;;;;;;;;;;;;;;;21.78;28.29;98031.09;4943730;29;1671;-76
2023/08/22 00:20:32;;;;;;;;;;;;;;;21.90;28.08;98031.59;4937430;29;946;-76
2023/08/22 00:22:58;;;;;;;;;;;;;;;22.04;27.84;98034.03;4921297;29;1107;-76
2023/08/22 00:25:23;;;;;;;;;;;;;;;21.77;28.50;98029.50;4936527;29;1954;-76
2023/08/22 00:27:49;;;;;;;;;;;;;;;21.78;28.19;98036.75;4944962;29;1284;-77
2023/08/22 00:30:14;;;;;;;;;;;;;;;22.05;28.10;98038.47;4955999;29;825;-76
2023/08/22 00:32:40;;;;;;;;;;;;;;;22.11;27.75;98036.69;4939931;29;1247;-77
2023/08/22 00:35:05;;;;;;;;;;;;;;;22.17;27.59;98037.72;4955531;29;910;-76
2023/08/22 00:37:31;;;;;;;;;;;;;;;21.86;28.21;98031.69;4916824;29;1740;-77
2023/08/22 00:39:57;;;;;;;;;;;;;;;21.88;28.19;98028.41;4885980;29;1925;-76
2023/08/22 00:42:22;;;;;;;;;;;;;;;22.03;28.08;98026.78;4915893;29;1051;-76
2023/08/22 00:44:48;;;;;;;;;;;;;;;21.82;28.49;98031.00;4920766;29;1899;-76
2023/08/22 00:47:14;;;;;;;;;;;;;;;21.67;28.57;98030.59;4948826;29;1655;-76
2023/08/22 00:49:39;;;;;;;;;;;;;;;21.81;28.46;98024.53;4935729;29;1543;-76
2023/08/22 00:52:05;;;;;;;;;;;;;;;22.04;28.24;98031.19;4920875;29;981;-77
2023/08/22 00:54:31;;;;;;;;;;;;;;;21.81;28.48;98027.38;4905344;29;1207;-77
2023/08/22 00:56:57;;;;;;;;;;;;;;;21.88;28.19;98022.75;4901689;29;2048;-76
2023/08/22 00:59:23;;;;;;;;;;;;;;;21.81;28.37;98027.38;4901885;29;1134;-76
2023/08/22 01:01:48;;;;;;;;;;;;;;;21.66;28.69;98025.34;4917495;29;1181;-76
2023/08/22 01:04:15;;;;;;;;;;;;;;;21.90;28.51;98031.59;4879750;29;1903;-76
2023/08/22 01:06:54;;;;;;;;;;;;;;;21.85;28.18;98030.09;4899764;29;1669;-76
2023/08/22 01:09:29;;;;;;;;;;;;;;;21.82;28.69;98026.13;4882915;29;1073;-76
2023/08/22 01:11:58;;;;;;;;;;;;;;;21.97;28.13;98037.06;4883069;29;1008;-76
2023/08/22 01:14:24;;;;;;;;;;;;;;;22.00;28.29;98024.84;4893747;29;959;-76
2023/08/22 01:16:49;;;;;;;;;;;;;;;22.14;27.84;98038.63;4888683;29;1670;-76
2023/08/22 01:19:17;;;;;;;;;;;;;;;22.08;27.82;98026.25;4888527;29;1517;-76
2023/08/22 01:21:49;;;;;;;;;;;;;;;21.95;28.37;98031.03;4867011;29;1420;-77
2023/08/22 01:24:15;;;;;;;;;;;;;;;22.01;28.23;98026.41;4882837;29;1981;-77
2023/08/22 01:26:40;;;;;;;;;;;;;;;21.74;28.66;98030.38;4882430;29;1776;-76
2023/08/22 01:29:09;;;;;;;;;;;;;;;21.96;28.42;98029.78;4860802;29;976;-76
2023/08/22 01:32:10;;;;;;;;;;;;;;;22.05;28.31;98038.47;4846361;29;959;-76
2023/08/22 01:34:36;;;;;;;;;;;;;;;21.74;28.74;98033.22;4791206;29;1216;-76
2023/08/22 01:37:02;;;;;;;;;;;;;;;21.89;28.54;98030.00;4807589;29;1372;-76
2023/08/22 01:39:29;;;;;;;;;;;;;;;22.09;28.21;98034.28;4809759;29;1222;-76
2023/08/22 01:41:54;;;;;;;;;;;;;;;22.00;28.35;98033.34;4820181;29;1527;-76
2023/08/22 01:44:20;;;;;;;;;;;;;;;21.95;28.35;98028.22;4827722;29;1982;-76
2023/08/22 01:46:45;;;;;;;;;;;;;;;21.84;28.45;98034.97;4827024;29;1728;-76
2023/08/22 01:49:11;;;;;;;;;;;;;;;22.05;28.27;98032.78;4827297;29;1206;-76
2023/08/22 01:51:37;;;;;;;;;;;;;;;21.77;28.58;98035.16;4827243;29;1088;-76
2023/08/22 01:54:03;;;;;;;;;;;;;;;21.96;28.40;98029.78;4827129;29;959;-77
2023/08/22 01:56:28;;;;;;;;;;;;;;;21.71;28.50;98030.47;4826534;29;1676;-76
2023/08/22 01:58:54;;;;;;;;;;;;;;;21.83;28.55;98033.38;4849521;29;1215;-77
2023/08/22 02:01:20;;;;;;;;;;;;;;;21.92;28.19;98034.78;4867267;29;1645;-77
2023/08/22 02:03:46;;;;;;;;;;;;;;;22.15;28.07;98037.38;4867118;29;1974;-76
2023/08/22 02:06:11;;;;;;;;;;;;;;;21.98;28.01;98038.66;4895464;29;1791;-76
2023/08/22 02:08:39;;;;;;;;;;;;;;;21.77;28.68;98035.16;4940808;29;1249;-77
2023/08/22 02:11:05;;;;;;;;;;;;;;;21.78;28.33;98033.91;4927713;29;1057;-76
2023/08/22 02:13:30;;;;;;;;;;;;;;;21.75;28.46;98031.19;4943139;29;867;-76
2023/08/22 02:15:56;;;;;;;;;;;;;;;21.83;28.35;98027.72;4923058;29;1082;-76
2023/08/22 02:18:21;;;;;;;;;;;;;;;21.85;28.27;98035.75;4956044;28;1901;-75
2023/08/22 02:20:49;;;;;;;;;;;;;;;21.98;28.26;98027.31;4942073;29;1060;-76
2023/08/22 02:23:15;;;;;;;;;;;;;;;21.95;28.33;98033.88;4925809;29;1907;-77
2023/08/22 02:25:40;;;;;;;;;;;;;;;21.91;28.39;98027.50;4926201;29;1158;-76
2023/08/22 02:28:06;;;;;;;;;;;;;;;21.72;28.52;98030.03;4925559;29;1968;-77
2023/08/22 02:30:32;;;;;;;;;;;;;;;21.96;28.30;98035.47;4910229;29;1135;-77
2023/08/22 02:32:57;;;;;;;;;;;;;;;21.92;28.05;98040.47;4957643;29;1031;-77
2023/08/22 02:35:23;;;;;;;;;;;;;;;22.02;28.17;98050.66;4903716;29;1155;-76
2023/08/22 02:37:49;;;;;;;;;;;;;;;22.02;28.21;98045.00;4903129;29;2018;-75
2023/08/22 02:40:15;;;;;;;;;;;;;;;21.96;28.23;98039.09;4903338;29;1102;-74
2023/08/22 02:42:40;;;;;;;;;;;;;;;21.62;28.67;98045.28;4919028;29;1210;-75
2023/08/22 02:45:07;;;;;;;;;;;;;;;21.84;28.45;98043.47;4918921;29;1969;-74
2023/08/22 02:47:33;;;;;;;;;;;;;;;21.72;28.55;98049.06;4917851;29;1952;-75
2023/08/22 02:50:00;;;;;;;;;;;;;;;21.94;28.02;98043.63;4918478;29;1712;-75
2023/08/22 02:52:26;;;;;;;;;;;;;;;21.87;28.27;98044.63;4934582;29;1072;-76
2023/08/22 02:54:51;;;;;;;;;;;;;;;21.85;28.02;98047.88;4918584;29;978;-76
2023/08/22 02:57:17;;;;;;;;;;;;;;;21.88;28.17;98046.22;4917853;29;2027;-75
2023/08/22 02:59:43;;;;;;;;;;;;;;;21.90;28.19;98048.59;4918330;29;973;-74
2023/08/22 03:02:08;;;;;;;;;;;;;;;21.73;28.21;98057.13;4919492;29;1850;-75
2023/08/22 03:04:36;;;;;;;;;;;;;;;21.79;28.07;98052.50;4904061;29;1992;-75
2023/08/22 03:07:03;;;;;;;;;;;;;;;22.01;27.92;98060.41;4919753;29;1873;-74
2023/08/22 03:09:30;;;;;;;;;;;;;;;21.99;27.92;98057.25;4937579;29;1894;-75
2023/08/22 03:11:56;;;;;;;;;;;;;;;21.87;27.86;98060.81;4941448;28;1901;-76
2023/08/22 03:14:22;;;;;;;;;;;;;;;21.48;28.39;98029.44;4941680;29;1460;-75
2023/08/22 03:16:48;;;;;;;;;;;;;;;21.75;28.32;98065.94;4902305;29;1125;-75
2023/08/22 03:19:13;;;;;;;;;;;;;;;21.99;28.17;98063.72;4902532;29;1049;-75
2023/08/22 03:21:40;;;;;;;;;;;;;;;22.02;27.99;98059.16;4870301;29;1684;-75
2023/08/22 03:24:06;;;;;;;;;;;;;;;22.00;28.08;98061.66;4917990;29;1923;-75
2023/08/22 03:26:31;;;;;;;;;;;;;;;21.81;28.18;98055.69;4902477;29;1021;-75
2023/08/22 03:28:57;;;;;;;;;;;;;;;21.84;28.24;98057.63;4886642;29;1187;-75
2023/08/22 03:31:25;;;;;;;;;;;;;;;21.92;28.08;98057.44;4917992;29;1002;-74
2023/08/22 03:33:52;;;;;;;;;;;;;;;21.87;28.09;98060.81;4864268;29;1917;-75
2023/08/22 03:36:17;;;;;;;;;;;;;;;21.75;28.35;98053.84;4880216;29;1053;-75
2023/08/22 03:38:43;;;;;;;;;;;;;;;21.74;28.46;98061.53;4880248;29;1276;-75
2023/08/22 03:41:09;;;;;;;;;;;;;;;21.75;28.51;98054.63;4880259;29;1250;-75
2023/08/22 03:43:35;;;;;;;;;;;;;;;22.03;27.94;98063.63;4863634;29;1950;-75
2023/08/22 03:46:02;;;;;;;;;;;;;;;21.95;28.18;98062.22;4886111;29;1442;-74
2023/08/22 03:48:28;;;;;;;;;;;;;;;22.03;27.98;98058.75;4928434;29;923;-74
2023/08/22 03:50:54;;;;;;;;;;;;;;;21.94;27.80;98052.91;4920848;29;1180;-75
2023/08/22 03:53:20;;;;;;;;;;;;;;;22.22;27.75;98065.53;4925639;29;2027;-75
2023/08/22 03:55:45;;;;;;;;;;;;;;;21.99;27.78;98057.25;4882462;29;1772;-75
2023/08/22 03:58:11;;;;;;;;;;;;;;;21.66;28.41;98062.16;4920470;29;1232;-76
2023/08/22 04:00:36;;;;;;;;;;;;;;;21.69;28.38;98056.41;4920367;29;1121;-75
2023/08/22 04:03:02;;;;;;;;;;;;;;;21.83;28.08;98064.53;4901515;29;1159;-75
2023/08/22 04:05:28;;;;;;;;;;;;;;;22.02;28.02;98065.66;4915564;29;1911;-74
2023/08/22 04:07:53;;;;;;;;;;;;;;;21.82;28.11;98053.66;4936112;29;1042;-75
2023/08/22 04:10:20;;;;;;;;;;;;;;;21.94;28.18;98055.75;4936510;29;968;-75
2023/08/22 04:12:46;;;;;;;;;;;;;;;21.90;28.32;98060.72;4936156;29;981;-75
2023/08/22 04:15:11;;;;;;;;;;;;;;;21.89;28.24;98058.34;4935934;29;1041;-75
2023/08/22 04:17:43;;;;;;;;;;;;;;;21.78;28.34;98065.06;4916891;29;977;-75
2023/08/22 04:20:12;;;;;;;;;;;;;;;21.77;28.50;98063.50;4901363;29;1153;-76
2023/08/22 04:22:39;;;;;;;;;;;;;;;21.68;28.41;98060.47;4901187;29;964;-75
2023/08/22 04:25:05;;;;;;;;;;;;;;;21.70;28.42;98063.66;4901163;29;1986;-77
2023/08/22 04:27:31;;;;;;;;;;;;;;;22.06;28.14;98065.53;4901242;29;1272;-75
2023/08/22 04:29:58;;;;;;;;;;;;;;;21.99;27.98;98069.38;4885410;29;1734;-77
2023/08/22 04:32:24;;;;;;;;;;;;;;;21.81;28.35;98071.88;4900585;29;1205;-76
2023/08/22 04:34:51;;;;;;;;;;;;;;;21.68;28.53;98068.97;4901059;29;1110;-77
2023/08/22 04:37:17;;;;;;;;;;;;;;;21.89;28.01;98075.31;4916849;29;1166;-77
2023/08/22 04:39:43;;;;;;;;;;;;;;;22.17;27.97;98073.78;4932684;29;1120;-77
2023/08/22 04:42:34;;;;;;;;;;;;;;;22.17;27.98;98074.56;4913508;29;1198;-77
2023/08/22 04:45:03;;;;;;;;;;;;;;;21.94;28.20;98078.41;4916949;29;1985;-77
2023/08/22 04:47:28;;;;;;;;;;;;;;;22.04;27.95;98077.31;4932524;29;1284;-77
2023/08/22 04:49:54;;;;;;;;;;;;;;;22.15;27.84;98082.72;4916766;29;1315;-77
2023/08/22 04:52:19;;;;;;;;;;;;;;;22.02;27.88;98082.66;4932509;29;916;-77
2023/08/22 04:54:45;;;;;;;;;;;;;;;21.90;28.32;98082.56;4912633;29;1338;-78
2023/08/22 04:57:10;;;;;;;;;;;;;;;22.07;28.00;98081.28;4916615;29;1120;-78
2023/08/22 04:59:37;;;;;;;;;;;;;;;21.91;28.17;98089.84;4916778;29;1137;-77
2023/08/22 05:02:02;;;;;;;;;;;;;;;21.98;27.85;98089.66;4869719;29;1205;-77
2023/08/22 05:04:30;;;;;;;;;;;;;;;22.25;27.73;98092.19;4935691;29;1989;-77
2023/08/22 05:06:55;;;;;;;;;;;;;;;21.87;28.44;98089.94;4936878;29;728;-77
2023/08/22 05:09:21;;;;;;;;;;;;;;;22.09;28.06;98093.78;4938114;29;897;-77
2023/08/22 05:11:47;;;;;;;;;;;;;;;21.91;28.36;98089.84;4954131;28;1413;-77
2023/08/22 05:14:13;;;;;;;;;;;;;;;21.91;28.34;98095.50;4940771;29;1162;-78
2023/08/22 05:16:39;;;;;;;;;;;;;;;21.97;28.26;98093.75;4940448;29;1113;-76
2023/08/22 05:19:05;;;;;;;;;;;;;;;21.93;28.34;98102.31;4940267;29;1315;-76
2023/08/22 05:21:31;;;;;;;;;;;;;;;22.03;28.36;98103.28;4901321;29;1052;-76
2023/08/22 05:23:57;;;;;;;;;;;;;;;21.93;28.33;98105.16;4885811;29;1962;-75
2023/08/22 05:26:23;;;;;;;;;;;;;;;21.88;28.48;98102.88;4885592;29;1243;-76
2023/08/22 05:28:49;;;;;;;;;;;;;;;21.84;28.75;98107.81;4866762;29;1411;-76
2023/08/22 05:31:20;;;;;;;;;;;;;;;22.21;28.30;98109.28;4883004;29;911;-76
2023/08/22 05:33:46;;;;;;;;;;;;;;;22.12;28.47;98111.94;4866865;29;1222;-76
2023/08/22 05:36:12;;;;;;;;;;;;;;;21.96;28.74;98117.63;4866797;29;1136;-77
2023/08/22 05:38:37;;;;;;;;;;;;;;;21.85;28.89;98115.06;4866853;29;1121;-77
2023/08/22 05:41:03;;;;;;;;;;;;;;;21.67;29.26;98115.53;4866719;29;1334;-76
2023/08/22 05:43:28;;;;;;;;;;;;;;;22.12;28.64;98111.94;4882065;29;1903;-77
2023/08/22 05:45:54;;;;;;;;;;;;;;;21.90;28.70;98113.75;4850210;29;1227;-77
2023/08/22 05:48:21;;;;;;;;;;;;;;;21.97;28.88;98116.41;4848511;29;1278;-77
2023/08/22 05:50:48;;;;;;;;;;;;;;;22.22;28.24;98110.88;4848176;29;1025;-77
2023/08/22 05:53:13;;;;;;;;;;;;;;;22.04;28.71;98122.66;4862760;29;1267;-77
2023/08/22 05:55:39;;;;;;;;;;;;;;;22.26;28.39;98120.06;4881954;29;1006;-76
2023/08/22 05:58:04;;;;;;;;;;;;;;;22.06;28.62;98116.53;4881994;29;1123;-76
2023/08/22 06:00:30;;;;;;;;;;;;;;;21.98;29.00;98118.00;4866156;29;1174;-77
2023/08/22 06:02:56;;;;;;;;;;;;;;;22.03;28.83;98112.59;4863277;29;1139;-77
2023/08/22 06:05:25;;;;;;;;;;;;;;;22.14;28.45;98126.50;4835581;29;1911;-76
2023/08/22 06:07:50;;;;;;;;;;;;;;;22.01;29.17;98112.22;4866230;29;1262;-76
2023/08/22 06:10:16;;;;;;;;;;;;;;;22.01;29.06;98128.41;4881704;29;1227;-76
2023/08/22 06:12:41;;;;;;;;;;;;;;;21.93;28.98;98127.81;4881673;29;1062;-77
2023/08/22 06:15:07;;;;;;;;;;;;;;;22.07;28.52;98121.78;4847474;29;1256;-77
2023/08/22 06:17:34;;;;;;;;;;;;;;;21.85;29.08;98130.03;4874500;29;1268;-77
2023/08/22 06:19:59;;;;;;;;;;;;;;;21.89;28.93;98124.28;4911695;29;1311;-78
2023/08/22 06:22:25;;;;;;;;;;;;;;;21.83;29.25;98126.84;4892510;29;1304;-77
2023/08/22 06:24:51;;;;;;;;;;;;;;;21.90;29.30;98127.91;4900151;29;1918;-77
2023/08/22 06:27:16;;;;;;;;;;;;;;;22.23;28.82;98135.16;4900323;29;995;-76
2023/08/22 06:29:42;;;;;;;;;;;;;;;22.19;28.92;98131.63;4884130;29;851;-76
2023/08/22 06:32:07;;;;;;;;;;;;;;;21.91;29.38;98138.78;4884318;29;1416;-76
2023/08/22 06:34:35;;;;;;;;;;;;;;;21.88;29.29;98136.06;4928980;29;1093;-76
2023/08/22 06:37:00;;;;;;;;;;;;;;;21.87;29.56;98134.47;4905839;29;1183;-77
2023/08/22 06:39:27;;;;;;;;;;;;;;;21.96;29.10;98138.25;4906135;29;1193;-76
2023/08/22 06:41:52;;;;;;;;;;;;;;;21.74;29.56;98140.84;4890603;29;1118;-76
2023/08/22 06:44:23;;;;;;;;;;;;;;;21.91;29.23;98129.50;4891676;29;1919;-76
2023/08/22 06:46:50;;;;;;;;;;;;;;;21.96;29.29;98137.44;4931821;29;1253;-76
2023/08/22 06:49:16;;;;;;;;;;;;;;;22.24;28.73;98131.06;4958029;29;1128;-77
2023/08/22 06:51:42;;;;;;;;;;;;;;;21.85;29.41;98138.53;4942122;29;1370;-76
2023/08/22 06:54:08;;;;;;;;;;;;;;;21.95;29.19;98135.88;4918296;29;959;-75
2023/08/22 06:56:33;;;;;;;;;;;;;;;22.11;29.21;98138.72;4953662;29;1113;-76
2023/08/22 06:58:59;;;;;;;;;;;;;;;22.16;29.08;98146.66;4953136;29;1179;-76
2023/08/22 07:01:24;;;;;;;;;;;;;;;22.35;28.62;98137.25;4956801;29;933;-78
2023/08/22 07:03:50;;;;;;;;;;;;;;;22.01;29.40;98139.75;4956443;29;1902;-77
2023/08/22 07:06:15;;;;;;;;;;;;;;;22.01;29.11;98145.41;4940585;29;865;-76
2023/08/22 07:08:41;;;;;;;;;;;;;;;22.04;29.33;98138.88;4940249;29;1012;-77
2023/08/22 07:11:06;;;;;;;;;;;;;;;21.90;29.73;98140.03;4940604;29;920;-77
2023/08/22 07:13:32;;;;;;;;;;;;;;;22.49;28.58;98146.63;4940225;29;946;-76
2023/08/22 07:15:58;;;;;;;;;;;;;;;22.30;28.91;98143.47;4956599;29;998;-77
2023/08/22 07:18:23;;;;;;;;;;;;;;;22.25;29.20;98140.38;4956390;29;961;-77
2023/08/22 07:20:51;;;;;;;;;;;;;;;22.23;29.27;98140.81;4940158;29;1248;-77
2023/08/22 07:23:18;;;;;;;;;;;;;;;22.28;29.28;98143.13;4955987;29;1159;-77
2023/08/22 07:25:46;;;;;;;;;;;;;;;22.40;29.08;98143.63;4955581;28;1032;-77
2023/08/22 07:28:12;;;;;;;;;;;;;;;22.20;29.31;98132.41;4960433;28;1001;-76
2023/08/22 07:30:37;;;;;;;;;;;;;;;22.07;29.60;98138.78;4944332;28;952;-76
2023/08/22 07:33:03;;;;;;;;;;;;;;;22.04;29.46;98144.53;4944410;28;1117;-76
2023/08/22 07:35:29;;;;;;;;;;;;;;;21.92;29.89;98136.78;4959839;28;1036;-77
2023/08/22 07:37:55;;;;;;;;;;;;;;;22.06;29.74;98144.88;4977596;28;880;-77
2023/08/22 07:40:21;;;;;;;;;;;;;;;22.10;29.52;98140.75;4960231;28;994;-77
2023/08/22 07:42:46;;;;;;;;;;;;;;;22.40;29.21;98143.63;4977507;28;981;-77
2023/08/22 07:45:12;;;;;;;;;;;;;;;21.85;29.97;98144.19;4960256;28;1985;-77
2023/08/22 07:47:37;;;;;;;;;;;;;;;22.12;29.48;98151.63;4940614;29;1178;-75
2023/08/22 07:50:03;;;;;;;;;;;;;;;22.39;29.26;98147.69;4941015;29;908;-76
2023/08/22 07:52:30;;;;;;;;;;;;;;;22.27;29.26;98152.84;4956823;29;1129;-76
2023/08/22 07:54:55;;;;;;;;;;;;;;;22.22;29.21;98146.91;4941159;29;963;-76
2023/08/22 07:57:21;;;;;;;;;;;;;;;22.43;28.88;98149.16;4958459;29;889;-76
2023/08/22 07:59:46;;;;;;;;;;;;;;;22.32;29.09;98143.78;4925205;29;1077;-76
2023/08/22 08:02:12;;;;;;;;;;;;;;;22.44;28.97;98150.00;4957965;29;917;-76
2023/08/22 08:04:37;;;;;;;;;;;;;;;22.16;29.50;98146.66;4940777;29;1993;-76
2023/08/22 08:07:03;;;;;;;;;;;;;;;22.34;29.17;98132.81;4957506;29;959;-77
2023/08/22 08:09:28;;;;;;;;;;;;;;;22.10;29.77;98137.09;4940897;29;1047;-76
2023/08/22 08:11:54;;;;;;;;;;;;;;;22.18;29.66;98138.53;4958025;29;1131;-76
2023/08/22 08:14:19;;;;;;;;;;;;;;;22.24;29.62;98139.56;4940489;29;959;-75
2023/08/22 08:16:45;;;;;;;;;;;;;;;22.26;29.75;98134.25;4924772;29;1242;-76
2023/08/22 08:19:10;;;;;;;;;;;;;;;22.23;29.88;98129.50;4940243;29;968;-76
2023/08/22 08:21:36;;;;;;;;;;;;;;;22.24;29.76;98133.91;4940432;29;913;-76
2023/08/22 08:24:04;;;;;;;;;;;;;;;22.16;30.00;98132.50;4940741;29;1907;-76
2023/08/22 08:26:30;;;;;;;;;;;;;;;22.23;30.11;98140.81;4909273;29;1161;-76
2023/08/22 08:28:56;;;;;;;;;;;;;;;22.38;29.75;98131.91;4940893;29;962;-76
2023/08/22 08:31:21;;;;;;;;;;;;;;;22.32;29.95;98132.47;4916771;29;1026;-76
2023/08/22 08:33:47;;;;;;;;;;;;;;;22.24;30.03;98125.41;4916817;29;956;-75
2023/08/22 08:36:12;;;;;;;;;;;;;;;22.23;30.02;98121.00;4901222;29;1148;-76
2023/08/22 08:38:38;;;;;;;;;;;;;;;22.35;29.72;98125.91;4882820;29;1126;-76
2023/08/22 08:41:03;;;;;;;;;;;;;;;22.12;30.42;98128.97;4897984;29;1470;-76
2023/08/22 08:43:29;;;;;;;;;;;;;;;22.35;29.90;98125.91;4897920;29;1914;-77
2023/08/22 08:45:55;;;;;;;;;;;;;;;22.13;30.56;98118.44;4905440;29;1212;-76
2023/08/22 08:48:21;;;;;;;;;;;;;;;22.01;30.72;98122.75;4904544;29;1051;-76
2023/08/22 08:50:47;;;;;;;;;;;;;;;22.14;30.54;98120.81;4904876;29;943;-77
2023/08/22 08:53:12;;;;;;;;;;;;;;;22.36;29.90;98127.50;4882995;29;1065;-75
2023/08/22 08:55:40;;;;;;;;;;;;;;;22.71;29.36;98126.94;4867628;29;867;-76
2023/08/22 08:58:07;;;;;;;;;;;;;;;22.56;29.70;98123.72;4882777;29;1014;-76
2023/08/22 09:00:32;;;;;;;;;;;;;;;22.32;29.88;98121.13;4867778;29;978;-76
2023/08/22 09:02:58;;;;;;;;;;;;;;;22.55;29.52;98128.59;4911605;29;965;-75
2023/08/22 09:05:23;;;;;;;;;;;;;;;22.55;29.47;98130.63;4920277;29;1907;-76
2023/08/22 09:07:49;;;;;;;;;;;;;;;22.17;30.11;98125.59;4920346;29;958;-76
2023/08/22 09:10:22;;;;;;;;;;;;;;;22.41;29.57;98119.69;4935032;29;976;-76
2023/08/22 09:12:47;;;;;;;;;;;;;;;22.29;29.87;98118.41;4955427;29;1128;-76
2023/08/22 09:15:17;;;;;;;;;;;;;;;22.36;29.81;98116.16;4939660;29;1057;-75
2023/08/22 09:17:42;;;;;;;;;;;;;;;22.27;29.87;98118.81;4920266;29;989;-77
2023/08/22 09:20:10;;;;;;;;;;;;;;;22.50;29.44;98108.50;4931533;29;1117;-76
2023/08/22 09:22:35;;;;;;;;;;;;;;;22.32;30.08;98121.13;4948913;29;1330;-76
2023/08/22 09:25:01;;;;;;;;;;;;;;;22.23;30.01;98109.66;4971088;28;1987;-76
2023/08/22 09:27:27;;;;;;;;;;;;;;;22.36;29.85;98115.34;4958465;29;970;-76
2023/08/22 09:29:53;;;;;;;;;;;;;;;22.45;29.82;98109.06;4974169;28;1091;-76
2023/08/22 09:32:19;;;;;;;;;;;;;;;22.41;29.97;98105.50;4958198;29;1023;-76
2023/08/22 09:34:51;;;;;;;;;;;;;;;22.47;29.79;98104.50;4974493;28;1013;-76
2023/08/22 09:37:28;;;;;;;;;;;;;;;22.72;29.44;98103.78;4974045;28;1131;-75
2023/08/22 09:39:53;;;;;;;;;;;;;;;22.28;29.99;98114.78;4958022;29;1682;-76
2023/08/22 09:42:19;;;;;;;;;;;;;;;22.51;29.57;98110.09;4974076;28;1023;-76
2023/08/22 09:44:44;;;;;;;;;;;;;;;22.22;30.02;98113.69;4974163;28;1919;-76
2023/08/22 09:47:10;;;;;;;;;;;;;;;22.55;29.46;98110.78;4942286;29;1570;-76
2023/08/22 09:49:35;;;;;;;;;;;;;;;22.41;29.75;98111.19;4942754;29;980;-76
2023/08/22 09:52:01;;;;;;;;;;;;;;;22.41;29.49;98111.19;4960526;29;986;-76
2023/08/22 09:54:27;;;;;;;;;;;;;;;22.51;29.42;98110.09;4942866;29;906;-76
2023/08/22 09:56:52;;;;;;;;;;;;;;;22.53;29.48;98116.09;4959331;28;842;-76
2023/08/22 09:59:18;;;;;;;;;;;;;;;22.50;29.34;98114.16;4942914;29;1068;-76
2023/08/22 10:01:44;;;;;;;;;;;;;;;22.60;29.11;98116.69;4942960;29;891;-76
2023/08/22 10:04:10;;;;;;;;;;;;;;;22.18;29.47;98104.53;4959704;29;1898;-76
2023/08/22 10:06:36;;;;;;;;;;;;;;;22.26;29.67;98110.78;4927285;29;963;-76
2023/08/22 10:09:07;;;;;;;;;;;;;;;22.31;29.39;98108.19;4938036;29;1057;-75
2023/08/22 10:11:35;;;;;;;;;;;;;;;22.12;29.49;98117.63;4922689;29;1041;-77
2023/08/22 10:14:00;;;;;;;;;;;;;;;22.46;29.23;98108.59;4922150;29;1067;-75
2023/08/22 10:16:27;;;;;;;;;;;;;;;22.27;29.15;98107.50;4921836;29;1549;-76
2023/08/22 10:19:02;;;;;;;;;;;;;;;22.65;28.61;98115.34;4938202;29;1018;-76
2023/08/22 10:21:46;;;;;;;;;;;;;;;22.30;29.28;98106.59;4938362;29;1033;-76
2023/08/22 10:24:26;;;;;;;;;;;;;;;22.52;28.70;98117.34;4937672;29;1974;-76
2023/08/22 10:26:59;;;;;;;;;;;;;;;22.39;29.10;98113.69;4937860;29;902;-76
2023/08/22 10:29:25;;;;;;;;;;;;;;;22.52;28.98;98123.00;4899772;29;1322;-76
2023/08/22 10:32:02;;;;;;;;;;;;;;;22.46;28.93;98119.94;4899947;29;969;-76
2023/08/22 10:34:34;;;;;;;;;;;;;;;22.41;29.14;98122.53;4899764;29;910;-76
2023/08/22 10:36:59;;;;;;;;;;;;;;;22.06;29.48;98108.03;4900218;29;984;-76
2023/08/22 10:39:37;;;;;;;;;;;;;;;22.18;29.11;98115.88;4884348;29;1274;-76
2023/08/22 10:42:03;;;;;;;;;;;;;;;22.41;28.89;98111.19;4899883;29;928;-75
2023/08/22 10:44:30;;;;;;;;;;;;;;;22.35;29.05;98097.56;4884145;29;1899;-75
2023/08/22 10:47:08;;;;;;;;;;;;;;;22.40;28.88;98098.25;4900234;29;1389;-76
2023/08/22 10:49:34;;;;;;;;;;;;;;;22.32;28.71;98098.44;4899868;29;1022;-76
2023/08/22 10:52:09;;;;;;;;;;;;;;;22.43;28.64;98103.00;4884186;29;1048;-77
2023/08/22 10:54:53;;;;;;;;;;;;;;;22.56;28.63;98104.66;4904501;29;978;-76
2023/08/22 10:57:19;;;;;;;;;;;;;;;22.75;28.57;98100.06;4918497;29;955;-77
2023/08/22 10:59:59;;;;;;;;;;;;;;;22.66;28.46;98094.25;4918688;29;1102;-76
2023/08/22 11:02:32;;;;;;;;;;;;;;;22.50;28.59;98102.81;4918449;29;1008;-76
2023/08/22 11:04:58;;;;;;;;;;;;;;;22.50;28.47;98091.50;4918192;29;1903;-76
2023/08/22 11:07:24;;;;;;;;;;;;;;;22.49;28.52;98090.69;4932701;29;1084;-76
2023/08/22 11:09:49;;;;;;;;;;;;;;;22.57;28.46;98096.94;4906959;29;1066;-76
2023/08/22 11:12:18;;;;;;;;;;;;;;;22.61;28.56;98109.78;4918185;29;1181;-77
2023/08/22 11:14:44;;;;;;;;;;;;;;;22.25;29.07;98097.84;4902534;29;956;-75
2023/08/22 11:17:12;;;;;;;;;;;;;;;22.02;29.46;98090.34;4886992;29;1541;-76
2023/08/22 11:19:37;;;;;;;;;;;;;;;22.26;29.14;98088.91;4918236;29;992;-76
2023/08/22 11:22:03;;;;;;;;;;;;;;;22.16;29.38;98084.31;4902624;29;1027;-76
2023/08/22 11:24:29;;;;;;;;;;;;;;;22.43;28.74;98083.16;4917998;29;1911;-75
2023/08/22 11:26:55;;;;;;;;;;;;;;;22.32;29.26;98087.09;4887133;29;928;-76
2023/08/22 11:29:22;;;;;;;;;;;;;;;22.59;28.71;98078.25;4901902;29;1248;-77
2023/08/22 11:31:48;;;;;;;;;;;;;;;22.54;28.82;98081.63;4918095;29;975;-76
2023/08/22 11:34:13;;;;;;;;;;;;;;;22.60;28.48;98076.19;4901887;29;985;-76
2023/08/22 11:36:39;;;;;;;;;;;;;;;22.71;28.67;98073.03;4902206;29;833;-77
2023/08/22 11:39:07;;;;;;;;;;;;;;;22.55;28.79;98082.44;4917870;29;935;-76
2023/08/22 11:41:33;;;;;;;;;;;;;;;22.55;28.99;98076.75;4917778;29;1031;-76
2023/08/22 11:44:00;;;;;;;;;;;;;;;22.20;29.30;98073.69;4925062;29;1899;-76
2023/08/22 11:46:26;;;;;;;;;;;;;;;22.42;28.83;98075.91;4936348;29;1561;-76
2023/08/22 11:49:10;;;;;;;;;;;;;;;22.43;28.76;98074.66;4923141;29;928;-76
2023/08/22 11:51:36;;;;;;;;;;;;;;;22.36;29.14;98070.78;4936616;29;956;-76
2023/08/22 11:54:02;;;;;;;;;;;;;;;22.32;29.29;98084.25;4920540;29;1000;-76
2023/08/22 11:56:28;;;;;;;;;;;;;;;22.25;29.23;98084.47;4936621;29;979;-76
2023/08/22 11:58:53;;;;;;;;;;;;;;;22.40;29.31;98081.25;4936871;29;1036;-76
2023/08/22 12:01:22;;;;;;;;;;;;;;;22.22;29.49;98082.53;4936244;29;914;-76
2023/08/22 12:03:48;;;;;;;;;;;;;;;22.43;29.28;98086.78;4920933;29;1967;-77
2023/08/22 12:06:13;;;;;;;;;;;;;;;22.20;29.55;98079.34;4936358;29;1064;-76
2023/08/22 12:08:39;;;;;;;;;;;;;;;22.23;29.49;98084.13;4936495;29;973;-76
2023/08/22 12:11:05;;;;;;;;;;;;;;;22.11;29.60;98082.03;4920583;29;1080;-76
2023/08/22 12:13:31;;;;;;;;;;;;;;;22.23;29.57;98084.13;4920449;29;956;-76
2023/08/22 12:15:56;;;;;;;;;;;;;;;22.28;29.28;98086.44;4920991;29;1017;-76
2023/08/22 12:18:29;;;;;;;;;;;;;;;22.13;29.89;98084.44;4955485;29;1318;-76
2023/08/22 12:20:55;;;;;;;;;;;;;;;22.32;29.55;98083.47;4924440;29;892;-76
2023/08/22 12:23:20;;;;;;;;;;;;;;;22.72;28.64;98086.78;4957655;29;948;-76
2023/08/22 12:25:46;;;;;;;;;;;;;;;22.56;28.77;98089.69;4957836;29;1915;-76
2023/08/22 12:28:11;;;;;;;;;;;;;;;22.35;29.31;98086.22;4940700;29;1016;-76
2023/08/22 12:30:37;;;;;;;;;;;;;;;22.25;29.62;98095.81;4940647;29;1251;-76
2023/08/22 12:33:03;;;;;;;;;;;;;;;22.65;28.72;98098.34;4940122;29;1187;-77
2023/08/22 12:35:29;;;;;;;;;;;;;;;22.12;29.86;98080.78;4940367;29;1056;-76
2023/08/22 12:37:55;;;;;;;;;;;;;;;22.27;29.54;98084.03;4940153;29;968;-75
2023/08/22 12:40:20;;;;;;;;;;;;;;;22.55;29.06;98105.13;4940174;29;953;-76
2023/08/22 12:42:46;;;;;;;;;;;;;;;22.54;28.99;98090.13;4935946;29;1420;-76
2023/08/22 12:45:11;;;;;;;;;;;;;;;22.64;28.94;98085.41;4920258;29;1976;-77
2023/08/22 12:47:37;;;;;;;;;;;;;;;22.57;28.77;98099.78;4954672;29;1105;-76
2023/08/22 12:50:03;;;;;;;;;;;;;;;22.25;29.38;98098.66;4939521;29;1235;-77
2023/08/22 12:52:31;;;;;;;;;;;;;;;22.39;29.19;98097.47;4938673;29;1097;-76
2023/08/22 12:54:57;;;;;;;;;;;;;;;22.54;28.99;98087.31;4939394;29;969;-77
2023/08/22 12:57:22;;;;;;;;;;;;;;;22.49;29.02;98087.06;4897599;29;982;-76